createdAt,value
2019-03-01T00:01:30.647Z,25.77
2019-03-01T00:04:20.401Z,25.00
2019-03-01T00:07:10.551Z,19.90
2019-03-01T00:10:21.580Z,21.47
2019-03-01T00:13:09.041Z,24.70
2019-03-01T00:16:13.904Z,22.03
2019-03-01T00:19:22.405Z,19.67
2019-03-01T00:22:36.216Z,19.20
2019-03-01T00:25:35.791Z,23.07
2019-03-01T00:28:31.806Z,18.60
2019-03-01T00:31:36.270Z,22.37
2019-03-01T00:34:20.019Z,20.47
2019-03-01T00:37:12.980Z,20.73
2019-03-01T00:40:31.186Z,16.97
2019-03-01T00:43:58.713Z,19.00
2019-03-01T00:46:26.271Z,21.67
2019-03-01T00:48:53.830Z,22.40
2019-03-01T00:51:21.402Z,21.20
2019-03-01T00:53:48.954Z,16.47
2019-03-01T00:56:16.542Z,19.10
2019-03-01T00:58:44.134Z,17.43
2019-03-01T01:01:11.704Z,21.63
2019-03-01T01:03:39.265Z,18.60
2019-03-01T01:06:06.819Z,19.77
2019-03-01T01:08:34.326Z,19.50
2019-03-01T01:11:01.915Z,17.00
2019-03-01T01:13:29.505Z,23.57
2019-03-01T01:15:57.087Z,20.57
2019-03-01T01:18:24.646Z,20.47
2019-03-01T01:20:52.311Z,16.67
2019-03-01T01:23:19.853Z,19.33
2019-03-01T01:25:47.507Z,17.53
2019-03-01T01:28:15.061Z,20.60
2019-03-01T01:30:42.619Z,19.30
2019-03-01T01:33:10.119Z,22.60
2019-03-01T01:35:37.700Z,19.63
2019-03-01T01:38:05.245Z,20.03
2019-03-01T01:40:32.770Z,22.20
2019-03-01T01:43:00.297Z,25.97
2019-03-01T01:45:27.882Z,22.10
2019-03-01T01:47:55.503Z,24.17
2019-03-01T01:50:23.138Z,24.20
2019-03-01T01:52:50.643Z,22.53
2019-03-01T01:55:18.217Z,24.00
2019-03-01T01:57:45.744Z,26.93
2019-03-01T02:00:13.370Z,23.87
2019-03-01T02:02:41.109Z,23.43
2019-03-01T02:05:08.800Z,25.30
2019-03-01T02:07:36.347Z,25.13
2019-03-01T02:10:04.390Z,24.87
2019-03-01T02:12:31.933Z,28.10
2019-03-01T02:14:59.503Z,24.63
2019-03-01T02:17:27.079Z,23.10
2019-03-01T02:19:54.681Z,32.17
2019-03-01T02:22:22.299Z,29.83
2019-03-01T02:24:49.851Z,24.97
2019-03-01T02:27:20.807Z,25.53
2019-03-01T02:29:48.352Z,24.53
2019-03-01T02:32:17.679Z,28.50
2019-03-01T02:34:45.216Z,27.67
2019-03-01T02:37:12.764Z,30.80
2019-03-01T02:39:40.329Z,27.03
2019-03-01T02:42:07.895Z,36.17
2019-03-01T02:44:35.469Z,34.47
2019-03-01T02:47:03.012Z,39.77
2019-03-01T02:49:30.543Z,37.13
2019-03-01T02:51:58.099Z,41.47
2019-03-01T02:54:25.624Z,46.90
2019-03-01T02:56:53.192Z,47.50
2019-03-01T02:59:20.744Z,47.03
2019-03-01T03:01:48.310Z,52.93
2019-03-01T03:04:15.864Z,50.77
2019-03-01T03:06:48.666Z,54.23
2019-03-01T03:09:16.180Z,55.80
2019-03-01T03:11:43.765Z,57.13
2019-03-01T03:14:11.295Z,62.33
2019-03-01T03:16:38.851Z,69.23
2019-03-01T03:19:06.392Z,67.20
2019-03-01T03:21:33.934Z,67.67
2019-03-01T03:24:01.462Z,77.57
2019-03-01T03:26:28.992Z,79.07
2019-03-01T03:28:56.503Z,81.70
2019-03-01T03:31:24.187Z,81.70
2019-03-01T03:33:51.695Z,75.20
2019-03-01T03:36:19.270Z,80.50
2019-03-01T03:38:46.837Z,85.33
2019-03-01T03:41:14.419Z,85.80
2019-03-01T03:43:43.802Z,88.73
2019-03-01T03:46:11.354Z,89.43
2019-03-01T03:48:38.916Z,92.37
2019-03-01T03:51:06.433Z,94.67
2019-03-01T03:53:34.027Z,86.73
2019-03-01T03:56:01.534Z,94.40
2019-03-01T03:58:29.105Z,100.57
2019-03-01T04:00:56.637Z,101.80
2019-03-01T04:03:24.294Z,98.37
2019-03-01T04:05:51.856Z,112.40
2019-03-01T04:08:19.592Z,121.80
2019-03-01T04:10:47.145Z,132.93
2019-03-01T04:13:16.816Z,167.87
2019-03-01T04:15:44.169Z,169.47
2019-03-01T04:18:11.780Z,164.53
2019-03-01T04:20:39.301Z,173.77
2019-03-01T04:23:06.915Z,175.13
2019-03-01T04:25:34.472Z,181.10
2019-03-01T04:28:02.042Z,180.03
2019-03-01T04:30:29.570Z,172.20
2019-03-01T04:32:57.100Z,181.50
2019-03-01T04:35:24.551Z,177.50
2019-03-01T04:37:52.203Z,175.37
2019-03-01T04:40:19.772Z,176.80
2019-03-01T04:42:47.365Z,171.17
2019-03-01T04:45:14.920Z,157.70
2019-03-01T04:47:42.473Z,156.90
2019-03-01T04:50:10.021Z,144.93
2019-03-01T04:52:40.049Z,138.70
2019-03-01T04:55:21.878Z,131.47
2019-03-01T04:57:49.378Z,123.50
2019-03-01T05:00:18.957Z,127.77
2019-03-01T05:02:46.502Z,111.43
2019-03-01T05:05:15.162Z,105.97
2019-03-01T05:07:42.702Z,112.90
2019-03-01T05:10:10.937Z,107.70
2019-03-01T05:12:38.522Z,98.90
2019-03-01T05:15:07.029Z,94.90
2019-03-01T05:17:34.580Z,104.13
2019-03-01T05:20:02.176Z,94.17
2019-03-01T05:22:29.711Z,92.80
2019-03-01T05:24:57.298Z,94.07
2019-03-01T05:27:25.930Z,97.87
2019-03-01T05:29:53.446Z,106.07
2019-03-01T05:32:20.978Z,92.83
2019-03-01T05:34:48.544Z,83.70
2019-03-01T05:37:16.061Z,85.60
2019-03-01T05:39:46.414Z,85.80
2019-03-01T05:42:24.526Z,95.30
2019-03-01T05:44:52.151Z,102.57
2019-03-01T05:47:19.718Z,94.73
2019-03-01T05:49:47.363Z,100.13
2019-03-01T05:52:14.980Z,109.23
2019-03-01T05:54:42.619Z,113.57
2019-03-01T05:57:12.253Z,108.20
2019-03-01T05:59:39.904Z,113.83
2019-03-01T06:02:50.459Z,107.87
2019-03-01T06:05:21.430Z,115.00
2019-03-01T06:08:11.054Z,105.17
2019-03-01T06:10:58.967Z,111.80
2019-03-01T06:14:17.077Z,107.60
2019-03-01T06:17:11.697Z,105.47
2019-03-01T06:20:13.622Z,108.57
2019-03-01T06:23:28.489Z,105.93
2019-03-01T06:26:26.665Z,93.73
2019-03-01T06:29:21.825Z,87.90
2019-03-01T06:32:28.322Z,88.40
2019-03-01T06:35:23.641Z,85.17
2019-03-01T06:38:52.369Z,84.43
2019-03-01T06:41:37.380Z,84.00
2019-03-01T06:44:33.243Z,80.63
2019-03-01T06:47:31.090Z,83.30
2019-03-01T06:50:08.614Z,91.60
2019-03-01T06:52:36.372Z,88.27
2019-03-01T06:55:04.299Z,90.10
2019-03-01T06:57:31.822Z,90.77
2019-03-01T06:59:59.457Z,93.13
2019-03-01T07:02:45.326Z,96.63
2019-03-01T07:05:12.905Z,83.03
2019-03-01T07:07:40.377Z,94.30
2019-03-01T07:10:08.005Z,96.50
2019-03-01T07:12:35.515Z,89.47
2019-03-01T07:15:03.906Z,93.73
2019-03-01T07:17:31.437Z,93.80
2019-03-01T07:19:59.013Z,93.20
2019-03-01T07:22:26.543Z,90.50
2019-03-01T07:24:54.133Z,89.50
2019-03-01T07:27:21.738Z,78.77
2019-03-01T07:29:49.299Z,83.77
2019-03-01T07:32:16.800Z,76.87
2019-03-01T07:34:44.342Z,82.83
2019-03-01T07:37:11.945Z,71.87
2019-03-01T07:39:39.480Z,77.90
2019-03-01T07:42:07.050Z,82.27
2019-03-01T07:44:34.583Z,77.40
2019-03-01T07:47:05.204Z,78.67
2019-03-01T07:49:32.798Z,74.57
2019-03-01T07:52:05.026Z,70.63
2019-03-01T07:54:32.134Z,69.97
2019-03-01T07:56:59.747Z,68.73
2019-03-01T07:59:31.812Z,67.03
2019-03-01T08:02:00.765Z,68.63
2019-03-01T08:04:29.682Z,67.37
2019-03-01T08:06:57.266Z,66.83
2019-03-01T08:09:24.868Z,70.97
2019-03-01T08:11:52.386Z,62.43
2019-03-01T08:14:19.947Z,68.53
2019-03-01T08:16:47.481Z,69.60
2019-03-01T08:19:16.150Z,69.23
2019-03-01T08:21:45.895Z,69.13
2019-03-01T08:24:14.926Z,69.00
2019-03-01T08:26:42.437Z,70.50
2019-03-01T08:29:09.959Z,69.13
2019-03-01T08:31:37.502Z,73.03
2019-03-01T08:34:05.025Z,71.93
2019-03-01T08:36:33.993Z,68.93
2019-03-01T08:39:04.885Z,63.57
2019-03-01T08:41:31.081Z,65.50
2019-03-01T08:44:00.284Z,65.87
2019-03-01T08:46:27.900Z,59.27
2019-03-01T08:48:55.432Z,64.53
2019-03-01T08:51:26.553Z,60.87
2019-03-01T08:53:52.336Z,56.10
2019-03-01T08:56:25.890Z,54.93
2019-03-01T08:58:49.230Z,49.90
2019-03-01T09:01:17.014Z,44.50
2019-03-01T09:03:51.925Z,43.83
2019-03-01T09:06:19.420Z,44.10
2019-03-01T09:08:47.001Z,43.97
2019-03-01T09:11:14.580Z,42.60
2019-03-01T09:13:42.398Z,37.93
2019-03-01T09:16:10.028Z,47.03
2019-03-01T09:18:37.594Z,49.53
2019-03-01T09:21:06.194Z,47.27
2019-03-01T09:23:33.838Z,53.00
2019-03-01T09:26:01.383Z,56.30
2019-03-01T09:28:28.932Z,54.97
2019-03-01T09:30:56.419Z,41.67
2019-03-01T09:33:23.978Z,52.27
2019-03-01T09:36:14.410Z,48.90
2019-03-01T09:38:44.171Z,51.57
2019-03-01T09:41:11.769Z,42.87
2019-03-01T09:43:39.305Z,45.43
2019-03-01T09:46:06.823Z,40.37
2019-03-01T09:48:34.376Z,39.70
2019-03-01T09:51:01.964Z,39.13
2019-03-01T09:53:30.534Z,38.93
2019-03-01T09:56:00.135Z,36.30
2019-03-01T09:58:27.725Z,32.63
2019-03-01T10:00:59.401Z,37.97
2019-03-01T10:03:26.935Z,35.57
2019-03-01T10:05:54.503Z,35.03
2019-03-01T10:08:23.676Z,40.73
2019-03-01T10:10:51.193Z,42.47
2019-03-01T10:13:18.719Z,47.43
2019-03-01T10:15:46.331Z,39.53
2019-03-01T10:18:13.878Z,40.43
2019-03-01T10:20:41.449Z,41.30
2019-03-01T10:23:10.573Z,42.77
2019-03-01T10:25:38.143Z,37.57
2019-03-01T10:28:08.023Z,37.10
2019-03-01T10:30:35.547Z,41.37
2019-03-01T10:33:03.186Z,43.07
2019-03-01T10:35:30.730Z,44.37
2019-03-01T10:37:58.254Z,41.60
2019-03-01T10:40:25.837Z,46.37
2019-03-01T10:42:53.351Z,44.33
2019-03-01T10:45:22.767Z,42.10
2019-03-01T10:47:50.315Z,45.07
2019-03-01T10:50:17.903Z,45.60
2019-03-01T10:52:45.420Z,43.77
2019-03-01T10:55:14.736Z,43.63
2019-03-01T10:57:42.243Z,39.03
2019-03-01T11:00:16.364Z,41.50
2019-03-01T11:02:44.264Z,40.17
2019-03-01T11:05:11.784Z,37.63
2019-03-01T11:07:39.251Z,38.23
2019-03-01T11:10:08.145Z,37.27
2019-03-01T11:12:35.691Z,42.47
2019-03-01T11:15:03.835Z,39.80
2019-03-01T11:17:31.278Z,39.67
2019-03-01T11:19:58.839Z,36.07
2019-03-01T11:22:26.395Z,39.37
2019-03-01T11:24:53.918Z,32.70
2019-03-01T11:27:21.506Z,30.37
2019-03-01T11:29:49.037Z,28.70
2019-03-01T11:32:16.560Z,29.03
2019-03-01T11:34:44.130Z,30.63
2019-03-01T11:37:11.680Z,30.93
2019-03-01T11:39:39.262Z,32.87
2019-03-01T11:42:06.811Z,30.73
2019-03-01T11:44:34.378Z,33.90
2019-03-01T11:47:01.957Z,29.40
2019-03-01T11:49:29.491Z,33.83
2019-03-01T11:51:57.055Z,32.33
2019-03-01T11:54:24.594Z,29.83
2019-03-01T11:56:53.588Z,33.07
2019-03-01T11:59:21.448Z,31.93
2019-03-01T12:01:48.977Z,28.27
2019-03-01T12:04:16.518Z,28.23
2019-03-01T12:06:44.076Z,30.27
2019-03-01T12:09:11.660Z,26.30
2019-03-01T12:11:39.214Z,25.47
2019-03-01T12:14:06.898Z,26.00
2019-03-01T12:16:34.458Z,25.30
2019-03-01T12:19:01.991Z,25.60
2019-03-01T12:21:29.529Z,23.53
2019-03-01T12:23:57.114Z,24.80
2019-03-01T12:26:24.623Z,24.00
2019-03-01T12:28:52.090Z,20.23
2019-03-01T12:31:19.636Z,20.23
2019-03-01T12:33:47.146Z,24.73
2019-03-01T12:36:14.685Z,22.53
2019-03-01T12:38:44.394Z,23.97
2019-03-01T12:41:11.999Z,21.30
2019-03-01T12:43:39.537Z,21.83
2019-03-01T12:46:07.087Z,21.13
2019-03-01T12:48:34.610Z,23.43
2019-03-01T12:51:02.150Z,21.30
2019-03-01T12:53:29.591Z,24.73
2019-03-01T12:55:57.118Z,22.43
2019-03-01T12:58:24.601Z,24.53
2019-03-01T13:01:03.570Z,26.40
2019-03-01T13:03:31.138Z,24.67
2019-03-01T13:06:00.588Z,22.97
2019-03-01T13:08:30.461Z,21.83
2019-03-01T13:10:58.094Z,20.83
2019-03-01T13:13:28.361Z,22.47
2019-03-01T13:15:55.887Z,15.33
2019-03-01T13:18:23.418Z,17.47
2019-03-01T13:20:50.961Z,14.97
2019-03-01T13:23:18.500Z,14.43
2019-03-01T13:25:46.090Z,12.97
2019-03-01T13:28:13.631Z,11.90
2019-03-01T13:30:41.196Z,11.00
2019-03-01T13:33:08.726Z,11.63
2019-03-01T13:35:36.256Z,10.47
2019-03-01T13:38:04.100Z,12.17
2019-03-01T13:40:31.881Z,12.67
2019-03-01T13:42:59.396Z,11.40
2019-03-01T13:45:26.841Z,9.13
2019-03-01T13:47:54.409Z,9.77
2019-03-01T13:50:24.018Z,11.87
2019-03-01T13:52:51.580Z,11.90
2019-03-01T13:55:22.183Z,10.83
2019-03-01T13:57:50.056Z,11.70
2019-03-01T14:00:17.991Z,11.83
2019-03-01T14:02:46.908Z,11.30
2019-03-01T14:05:17.029Z,11.83
2019-03-01T14:07:48.348Z,11.67
2019-03-01T14:10:17.436Z,12.33
2019-03-01T14:12:44.971Z,11.60
2019-03-01T14:15:14.239Z,10.50
2019-03-01T14:17:41.759Z,9.13
2019-03-01T14:20:19.057Z,9.83
2019-03-01T14:22:44.116Z,10.83
2019-03-01T14:25:13.687Z,12.70
2019-03-01T14:27:41.216Z,9.07
2019-03-01T14:30:11.769Z,10.17
2019-03-01T14:32:39.333Z,10.37
2019-03-01T14:35:07.254Z,9.20
2019-03-01T14:37:34.857Z,6.73
2019-03-01T14:40:02.405Z,7.57
2019-03-01T14:42:33.440Z,11.23
2019-03-01T14:45:00.961Z,6.97
2019-03-01T14:47:29.136Z,7.27
2019-03-01T14:50:00.490Z,7.47
2019-03-01T14:52:28.028Z,6.70
2019-03-01T14:54:55.646Z,6.60
2019-03-01T14:57:37.813Z,7.00
2019-03-01T15:00:15.360Z,8.17
2019-03-01T15:03:32.203Z,6.93
2019-03-01T15:06:01.086Z,7.13
2019-03-01T15:08:28.851Z,6.87
2019-03-01T15:10:59.447Z,8.50
2019-03-01T15:13:31.463Z,9.10
2019-03-01T15:16:01.120Z,8.17
2019-03-01T15:18:28.886Z,8.37
2019-03-01T15:21:02.554Z,5.90
2019-03-01T15:23:30.506Z,4.90
2019-03-01T15:26:02.890Z,5.07
2019-03-01T15:28:32.512Z,4.63
2019-03-01T15:31:02.950Z,3.47
2019-03-01T15:33:33.682Z,4.53
2019-03-01T15:36:03.729Z,4.17
2019-03-01T15:38:33.122Z,3.83
2019-03-01T15:41:06.392Z,3.20
2019-03-01T15:43:37.203Z,2.50
2019-03-01T15:46:11.520Z,5.17
2019-03-01T15:48:43.026Z,5.20
2019-03-01T15:51:10.596Z,5.60
2019-03-01T15:53:40.610Z,4.67
2019-03-01T15:56:14.104Z,4.87
2019-03-01T15:58:47.808Z,3.83
2019-03-01T16:01:15.347Z,5.73
2019-03-01T16:03:43.130Z,3.27
2019-03-01T16:06:14.099Z,3.80
2019-03-01T16:08:48.059Z,3.17
2019-03-01T16:11:16.764Z,2.67
2019-03-01T16:13:48.017Z,3.07
2019-03-01T16:16:15.119Z,3.60
2019-03-01T16:18:42.757Z,2.87
2019-03-01T16:21:10.317Z,2.87
2019-03-01T16:23:38.035Z,4.30
2019-03-01T16:26:08.082Z,2.17
2019-03-01T16:29:07.215Z,4.70
2019-03-01T16:31:32.120Z,6.60
2019-03-01T16:34:04.374Z,3.87
2019-03-01T16:36:41.105Z,3.37
2019-03-01T16:39:13.940Z,2.87
2019-03-01T16:41:42.921Z,3.27
2019-03-01T16:44:11.087Z,2.47
2019-03-01T16:46:40.924Z,3.87
2019-03-01T16:49:08.762Z,4.23
2019-03-01T16:51:38.658Z,4.20
2019-03-01T16:54:06.320Z,5.03
2019-03-01T16:56:34.597Z,3.83
2019-03-01T16:59:07.138Z,6.17
2019-03-01T17:01:35.923Z,2.97
2019-03-01T17:04:03.714Z,3.60
2019-03-01T17:06:38.055Z,4.87
2019-03-01T17:09:15.598Z,3.40
2019-03-01T17:11:44.455Z,4.37
2019-03-01T17:14:15.962Z,3.97
2019-03-01T17:16:43.851Z,2.60
2019-03-01T17:19:14.568Z,3.97
2019-03-01T17:21:42.145Z,5.37
2019-03-01T17:24:12.329Z,4.13
2019-03-01T17:26:43.566Z,4.23
2019-03-01T17:29:14.767Z,2.80
2019-03-01T17:31:45.085Z,3.53
2019-03-01T17:34:12.679Z,2.47
2019-03-01T17:36:42.237Z,2.63
2019-03-01T17:39:10.837Z,3.37
2019-03-01T17:41:48.238Z,4.30
2019-03-01T17:44:23.954Z,3.40
2019-03-01T17:46:54.164Z,1.93
2019-03-01T17:49:23.581Z,2.50
2019-03-01T17:51:56.516Z,2.63
2019-03-01T17:54:23.203Z,2.97
2019-03-01T17:56:57.199Z,4.10
2019-03-01T17:59:25.450Z,4.83
2019-03-01T18:01:54.791Z,2.50
2019-03-01T18:04:22.355Z,3.80
2019-03-01T18:06:52.357Z,3.23
2019-03-01T18:09:21.733Z,2.80
2019-03-01T18:11:50.211Z,4.77
2019-03-01T18:14:17.764Z,2.70
2019-03-01T18:16:45.526Z,23.20
2019-03-01T18:19:16.115Z,14.90
2019-03-01T18:21:50.056Z,55.37
2019-03-01T18:24:17.489Z,38.70
2019-03-01T18:26:45.119Z,6.47
2019-03-01T18:29:12.643Z,7.37
2019-03-01T18:31:40.247Z,4.63
2019-03-01T18:34:07.811Z,3.83
2019-03-01T18:36:35.402Z,6.93
2019-03-01T18:39:07.832Z,5.43
2019-03-01T18:41:40.844Z,4.70
2019-03-01T18:44:08.524Z,8.47
2019-03-01T18:46:38.059Z,6.73
2019-03-01T18:49:06.245Z,10.53
2019-03-01T18:51:34.225Z,7.50
2019-03-01T18:54:08.503Z,6.07
2019-03-01T18:56:36.129Z,5.93
2019-03-01T18:59:03.778Z,5.23
2019-03-01T19:01:31.471Z,6.40
2019-03-01T19:03:59.075Z,8.33
2019-03-01T19:06:26.563Z,5.90
2019-03-01T19:08:54.239Z,5.27
2019-03-01T19:11:21.811Z,5.90
2019-03-01T19:13:49.485Z,7.40
2019-03-01T19:16:18.955Z,8.00
2019-03-01T19:18:51.220Z,7.50
2019-03-01T19:21:18.977Z,7.60
2019-03-01T19:23:46.609Z,7.10
2019-03-01T19:26:14.179Z,7.10
2019-03-01T19:28:41.708Z,6.87
2019-03-01T19:31:09.275Z,8.97
2019-03-01T19:33:37.798Z,9.73
2019-03-01T19:36:06.166Z,8.13
2019-03-01T19:38:33.728Z,10.53
2019-03-01T19:41:01.295Z,7.33
2019-03-01T19:43:30.931Z,9.30
2019-03-01T19:45:58.469Z,9.37
2019-03-01T19:48:26.251Z,8.67
2019-03-01T19:50:53.776Z,8.47
2019-03-01T19:53:21.754Z,11.90
2019-03-01T19:55:59.682Z,11.17
2019-03-01T19:58:29.233Z,12.57
2019-03-01T20:01:08.911Z,9.97
2019-03-01T20:03:42.594Z,14.13
2019-03-01T20:06:11.619Z,12.63
2019-03-01T20:08:39.239Z,12.27
2019-03-01T20:11:06.925Z,11.67
2019-03-01T20:13:34.468Z,14.93
2019-03-01T20:16:02.074Z,12.80
2019-03-01T20:18:32.900Z,17.20
2019-03-01T20:21:05.873Z,14.53
2019-03-01T20:23:34.479Z,10.77
2019-03-01T20:26:07.177Z,14.43
2019-03-01T20:28:35.252Z,17.87
2019-03-01T20:31:05.807Z,17.43
2019-03-01T20:33:33.472Z,14.33
2019-03-01T20:36:04.832Z,15.03
2019-03-01T20:38:37.015Z,14.43
2019-03-01T20:41:07.639Z,15.33
2019-03-01T20:43:41.846Z,15.00
2019-03-01T20:46:08.101Z,13.47
2019-03-01T20:48:38.886Z,18.20
2019-03-01T20:51:09.565Z,14.77
2019-03-01T20:53:37.133Z,18.93
2019-03-01T20:56:09.916Z,18.93
2019-03-01T20:58:40.595Z,20.50
2019-03-01T21:01:07.114Z,16.97
2019-03-01T21:03:37.744Z,18.80
2019-03-01T21:06:10.321Z,17.13
2019-03-01T21:08:44.560Z,19.30
2019-03-01T21:11:16.028Z,18.40
2019-03-01T21:13:53.692Z,17.63
2019-03-01T21:16:24.882Z,19.27
2019-03-01T21:18:52.540Z,18.07
2019-03-01T21:21:25.626Z,18.50
2019-03-01T21:23:56.310Z,46.93
2019-03-01T21:26:51.220Z,38.47
2019-03-01T21:29:17.676Z,21.20
2019-03-01T21:31:45.219Z,19.13
2019-03-01T21:34:14.817Z,19.77
2019-03-01T21:36:42.196Z,17.37
2019-03-01T21:39:10.269Z,23.87
2019-03-01T21:41:37.809Z,17.63
2019-03-01T21:44:10.141Z,19.07
2019-03-01T21:46:35.154Z,19.23
2019-03-01T21:49:02.780Z,17.67
2019-03-01T21:51:30.393Z,19.27
2019-03-01T21:53:59.867Z,19.50
2019-03-01T21:56:27.423Z,20.17
2019-03-01T21:58:56.085Z,16.97
2019-03-01T22:01:23.669Z,16.80
2019-03-01T22:03:51.257Z,17.07
2019-03-01T22:06:20.689Z,19.63
2019-03-01T22:08:48.696Z,19.13
2019-03-01T22:11:17.350Z,18.50
2019-03-01T22:13:44.949Z,20.60
2019-03-01T22:16:13.440Z,24.40
2019-03-01T22:18:41.001Z,20.40
2019-03-01T22:21:08.637Z,19.97
2019-03-01T22:23:38.785Z,20.80
2019-03-01T22:26:09.591Z,22.50
2019-03-01T22:28:36.134Z,21.40
2019-03-01T22:31:04.739Z,20.87
2019-03-01T22:33:32.288Z,19.20
2019-03-01T22:35:59.893Z,24.27
2019-03-01T22:38:27.415Z,21.97
2019-03-01T22:41:00.638Z,22.63
2019-03-01T22:43:30.144Z,23.57
2019-03-01T22:45:57.713Z,26.00
2019-03-01T22:48:26.450Z,25.17
2019-03-01T22:50:54.009Z,26.73
2019-03-01T22:53:21.585Z,22.93
2019-03-01T22:55:49.224Z,25.23
2019-03-01T22:58:16.734Z,24.93
2019-03-01T23:01:16.001Z,22.60
2019-03-01T23:03:46.130Z,20.73
2019-03-01T23:06:14.686Z,21.70
2019-03-01T23:08:44.887Z,22.97
2019-03-01T23:11:13.496Z,20.83
2019-03-01T23:13:41.239Z,20.20
2019-03-01T23:16:08.825Z,21.73
2019-03-01T23:18:45.014Z,21.70
2019-03-01T23:21:12.600Z,22.47
2019-03-01T23:23:40.081Z,27.07
2019-03-01T23:26:07.756Z,19.67
2019-03-01T23:28:35.434Z,21.73
2019-03-01T23:31:03.642Z,21.17
2019-03-01T23:33:32.726Z,20.17
2019-03-01T23:36:00.260Z,20.70
2019-03-01T23:38:27.972Z,23.53
2019-03-01T23:40:55.654Z,23.53
2019-03-01T23:43:23.302Z,23.27
2019-03-01T23:45:53.726Z,22.77
2019-03-01T23:48:20.300Z,27.60
2019-03-01T23:50:47.863Z,21.97
2019-03-01T23:53:15.400Z,20.50
2019-03-01T23:55:42.970Z,31.80
2019-03-01T23:58:12.586Z,27.07
